createdAt,value
2023-02-19T00:01:52.372Z,87.79
2023-02-19T00:04:24.628Z,87.96
2023-02-19T00:06:52.664Z,88.32
2023-02-19T00:09:21.611Z,88.46
2023-02-19T00:11:49.714Z,88.58
2023-02-19T00:14:20.604Z,88.60
2023-02-19T00:16:49.114Z,88.91
2023-02-19T00:19:20.050Z,89.09
2023-02-19T00:21:51.171Z,89.50
2023-02-19T00:24:20.145Z,89.74
2023-02-19T00:26:49.128Z,89.59
2023-02-19T00:29:21.876Z,89.63
2023-02-19T00:31:50.753Z,89.67
2023-02-19T00:34:18.912Z,89.76
2023-02-19T00:36:46.843Z,89.76
2023-02-19T00:39:18.442Z,89.67
2023-02-19T00:41:47.322Z,89.67
2023-02-19T00:44:15.981Z,89.58
2023-02-19T00:46:46.625Z,89.77
2023-02-19T00:49:21.046Z,89.61
2023-02-19T00:51:51.012Z,89.65
2023-02-19T00:54:19.412Z,89.98
2023-02-19T00:56:47.414Z,89.92
2023-02-19T00:59:15.612Z,90.08
2023-02-19T01:01:44.882Z,90.27
2023-02-19T01:04:13.661Z,90.54
2023-02-19T01:06:41.948Z,90.64
2023-02-19T01:09:09.997Z,90.91
2023-02-19T01:11:38.055Z,90.65
2023-02-19T01:14:06.264Z,90.88
2023-02-19T01:16:34.190Z,90.88
2023-02-19T01:19:02.864Z,91.01
2023-02-19T01:21:31.353Z,91.14
2023-02-19T01:23:59.842Z,91.20
2023-02-19T01:26:31.188Z,90.99
2023-02-19T01:29:01.225Z,90.78
2023-02-19T01:31:32.380Z,90.86
2023-02-19T01:34:03.242Z,90.72
2023-02-19T01:36:34.381Z,90.55
2023-02-19T01:39:05.133Z,90.43
2023-02-19T01:41:35.308Z,90.77
2023-02-19T01:44:08.177Z,90.79
2023-02-19T01:46:38.961Z,90.81
2023-02-19T01:49:15.356Z,90.90
2023-02-19T01:51:48.472Z,91.31
2023-02-19T01:54:21.063Z,91.71
2023-02-19T01:56:51.035Z,91.75
2023-02-19T01:59:19.449Z,91.69
2023-02-19T02:01:47.576Z,91.45
2023-02-19T02:04:17.217Z,91.21
2023-02-19T02:06:51.617Z,90.89
2023-02-19T02:09:40.759Z,90.67
2023-02-19T02:12:08.911Z,90.70
2023-02-19T02:14:40.507Z,90.68
2023-02-19T02:17:14.412Z,90.76
2023-02-19T02:20:25.941Z,90.95
2023-02-19T02:23:00.158Z,90.97
2023-02-19T02:25:50.325Z,90.95
2023-02-19T02:28:38.398Z,91.08
2023-02-19T02:31:42.894Z,90.92
2023-02-19T02:34:19.621Z,91.01
2023-02-19T02:36:52.452Z,91.36
2023-02-19T02:39:25.361Z,91.29
2023-02-19T02:42:17.987Z,91.20
2023-02-19T02:45:09.687Z,91.22
2023-02-19T02:47:45.033Z,91.17
2023-02-19T02:50:23.693Z,91.00
2023-02-19T02:53:18.472Z,91.15
2023-02-19T02:55:51.937Z,90.98
2023-02-19T02:58:24.497Z,90.69
2023-02-19T03:01:18.494Z,90.88
2023-02-19T03:03:51.430Z,90.70
2023-02-19T03:06:23.791Z,90.91
2023-02-19T03:09:30.200Z,90.81
2023-02-19T03:12:21.996Z,90.67
2023-02-19T03:15:12.564Z,90.61
2023-02-19T03:18:08.719Z,90.59
2023-02-19T03:20:42.994Z,90.07
2023-02-19T03:23:13.636Z,90.02
2023-02-19T03:26:01.668Z,89.90
2023-02-19T03:28:59.181Z,89.67
2023-02-19T03:31:31.167Z,89.55
2023-02-19T03:34:04.975Z,89.66
2023-02-19T03:36:43.001Z,89.79
2023-02-19T03:39:15.680Z,89.72
2023-02-19T03:42:21.492Z,89.57
2023-02-19T03:45:01.681Z,89.63
2023-02-19T03:47:34.207Z,89.80
2023-02-19T03:50:15.214Z,89.38
2023-02-19T03:52:53.065Z,89.25
2023-02-19T03:55:35.337Z,89.12
2023-02-19T03:58:37.592Z,88.73
2023-02-19T04:01:13.762Z,88.87
2023-02-19T04:04:06.528Z,88.83
2023-02-19T04:06:37.406Z,88.75
2023-02-19T04:09:09.961Z,88.96
2023-02-19T04:11:39.721Z,89.56
2023-02-19T04:14:14.135Z,89.73
2023-02-19T04:16:47.572Z,90.19
2023-02-19T04:19:20.251Z,90.17
2023-02-19T04:21:51.134Z,90.24
2023-02-19T04:24:25.271Z,90.11
2023-02-19T04:26:55.090Z,89.98
2023-02-19T04:29:23.202Z,89.85
2023-02-19T04:31:51.451Z,90.24
2023-02-19T04:34:19.380Z,90.27
2023-02-19T04:36:47.247Z,90.27
2023-02-19T04:39:15.208Z,90.31
2023-02-19T04:41:43.104Z,90.99
2023-02-19T04:44:11.019Z,90.63
2023-02-19T04:46:43.031Z,90.33
2023-02-19T04:49:11.408Z,90.69
2023-02-19T04:51:39.884Z,90.35
2023-02-19T04:54:08.550Z,90.11
2023-02-19T04:56:36.714Z,90.15
2023-02-19T04:59:05.156Z,90.07
2023-02-19T05:01:33.188Z,90.64
2023-02-19T05:04:01.265Z,90.87
2023-02-19T05:06:29.296Z,90.82
2023-02-19T05:09:00.475Z,91.06
2023-02-19T05:11:28.538Z,91.09
2023-02-19T05:13:56.573Z,91.51
2023-02-19T05:16:25.331Z,91.66
2023-02-19T05:18:53.218Z,91.93
2023-02-19T05:21:21.090Z,91.88
2023-02-19T05:23:49.097Z,91.73
2023-02-19T05:26:20.727Z,91.60
2023-02-19T05:28:51.273Z,91.49
2023-02-19T05:31:20.352Z,91.18
2023-02-19T05:33:51.302Z,91.07
2023-02-19T05:36:20.386Z,91.24
2023-02-19T05:38:51.696Z,91.14
2023-02-19T05:41:24.015Z,91.31
2023-02-19T05:43:52.419Z,91.47
2023-02-19T05:46:23.379Z,91.59
2023-02-19T05:48:52.194Z,91.56
2023-02-19T05:51:24.113Z,91.48
2023-02-19T05:53:52.493Z,91.61
2023-02-19T05:56:26.746Z,91.72
2023-02-19T05:58:55.428Z,91.43
2023-02-19T06:01:26.337Z,91.45
2023-02-19T06:03:57.342Z,91.35
2023-02-19T06:06:27.035Z,91.09
2023-02-19T06:08:55.467Z,90.65
2023-02-19T06:11:23.907Z,90.76
2023-02-19T06:13:51.961Z,90.90
2023-02-19T06:16:20.050Z,91.30
2023-02-19T06:18:48.795Z,91.30
2023-02-19T06:21:18.354Z,91.36
2023-02-19T06:23:54.216Z,91.65
2023-02-19T06:26:24.930Z,91.52
2023-02-19T06:28:53.658Z,91.38
2023-02-19T06:31:23.885Z,91.20
2023-02-19T06:33:52.231Z,91.19
2023-02-19T06:36:21.756Z,91.05
2023-02-19T06:38:49.987Z,91.06
2023-02-19T06:41:19.254Z,91.27
2023-02-19T06:43:47.522Z,91.76
2023-02-19T06:46:15.845Z,92.12
2023-02-19T06:48:45.564Z,92.07
2023-02-19T06:51:16.101Z,91.99
2023-02-19T06:53:44.312Z,91.71
2023-02-19T06:56:32.737Z,91.69
2023-02-19T06:59:03.826Z,91.65
2023-02-19T07:01:32.735Z,91.78
2023-02-19T07:04:00.972Z,92.02
2023-02-19T07:06:29.184Z,92.04
2023-02-19T07:08:58.710Z,91.94
2023-02-19T07:11:30.508Z,91.94
2023-02-19T07:14:00.363Z,92.28
2023-02-19T07:16:29.212Z,92.51
2023-02-19T07:18:59.076Z,92.33
2023-02-19T07:21:28.300Z,92.47
2023-02-19T07:23:56.922Z,92.44
2023-02-19T07:26:25.463Z,92.34
2023-02-19T07:28:53.713Z,92.22
2023-02-19T07:31:24.118Z,92.31
2023-02-19T07:33:52.490Z,92.24
2023-02-19T07:36:22.531Z,92.47
2023-02-19T07:38:57.573Z,92.57
2023-02-19T07:41:27.367Z,92.63
2023-02-19T07:43:57.942Z,92.98
2023-02-19T07:46:26.196Z,92.76
2023-02-19T07:48:54.137Z,92.58
2023-02-19T07:51:23.997Z,92.73
2023-02-19T07:53:52.552Z,92.90
2023-02-19T07:56:21.023Z,93.10
2023-02-19T07:58:49.079Z,93.03
2023-02-19T08:01:39.924Z,92.93
2023-02-19T08:04:08.184Z,93.01
2023-02-19T08:06:36.154Z,92.97
2023-02-19T08:09:05.241Z,92.97
2023-02-19T08:11:51.793Z,92.97
2023-02-19T08:14:19.754Z,93.03
2023-02-19T08:16:57.101Z,93.19
2023-02-19T08:19:25.536Z,93.54
2023-02-19T08:21:55.085Z,93.51
2023-02-19T08:24:23.086Z,93.28
2023-02-19T08:26:51.096Z,93.23
2023-02-19T08:29:18.935Z,93.18
2023-02-19T08:31:46.994Z,92.95
2023-02-19T08:34:15.324Z,92.80
2023-02-19T08:36:44.368Z,92.52
2023-02-19T08:39:12.510Z,92.03
2023-02-19T08:41:42.738Z,92.06
2023-02-19T08:44:10.868Z,92.09
2023-02-19T08:46:38.879Z,92.32
2023-02-19T08:49:06.752Z,92.41
2023-02-19T08:51:34.587Z,92.66
2023-02-19T08:54:04.420Z,92.48
2023-02-19T08:56:32.328Z,92.08
2023-02-19T08:59:00.692Z,92.00
2023-02-19T09:01:28.719Z,92.15
2023-02-19T09:03:56.679Z,92.25
2023-02-19T09:06:27.448Z,92.71
2023-02-19T09:08:55.417Z,92.99
2023-02-19T09:11:23.414Z,93.18
2023-02-19T09:13:52.005Z,93.23
2023-02-19T09:16:20.025Z,93.64
2023-02-19T09:18:48.546Z,93.43
2023-02-19T09:21:16.612Z,93.42
2023-02-19T09:23:44.814Z,93.59
2023-02-19T09:26:14.458Z,93.39
2023-02-19T09:28:43.163Z,93.42
2023-02-19T09:31:14.306Z,93.23
2023-02-19T09:33:47.674Z,92.83
2023-02-19T09:36:18.873Z,92.51
2023-02-19T09:38:46.805Z,92.47
2023-02-19T09:41:26.339Z,92.18
2023-02-19T09:43:54.619Z,92.12
2023-02-19T09:46:31.896Z,92.03
2023-02-19T09:49:13.370Z,92.02
2023-02-19T09:51:46.021Z,92.05
2023-02-19T09:54:37.351Z,92.20
2023-02-19T09:57:12.052Z,91.96
2023-02-19T09:59:49.156Z,92.18
2023-02-19T10:02:20.630Z,91.91
2023-02-19T10:04:53.692Z,92.04
2023-02-19T10:07:40.287Z,91.63
2023-02-19T10:10:14.403Z,91.70
2023-02-19T10:12:52.445Z,91.71
2023-02-19T10:15:28.482Z,91.72
2023-02-19T10:17:58.627Z,91.91
2023-02-19T10:20:28.176Z,92.04
2023-02-19T10:23:05.537Z,92.05
2023-02-19T10:25:35.430Z,92.06
2023-02-19T10:28:04.684Z,92.22
2023-02-19T10:30:35.994Z,92.53
2023-02-19T10:33:08.808Z,92.38
2023-02-19T10:35:51.503Z,92.44
2023-02-19T10:38:25.994Z,92.42
2023-02-19T10:41:12.771Z,92.47
2023-02-19T10:43:51.433Z,92.34
2023-02-19T10:46:24.474Z,92.20
2023-02-19T10:49:05.177Z,92.27
2023-02-19T10:51:36.294Z,92.74
2023-02-19T10:54:19.909Z,92.77
2023-02-19T10:56:47.813Z,92.63
2023-02-19T10:59:24.668Z,92.81
2023-02-19T11:01:58.684Z,92.74
2023-02-19T11:04:29.963Z,92.71
2023-02-19T11:06:58.341Z,92.60
2023-02-19T11:09:38.349Z,93.06
2023-02-19T11:12:09.234Z,93.74
2023-02-19T11:14:38.208Z,94.37
2023-02-19T11:17:06.252Z,94.83
2023-02-19T11:19:48.725Z,95.11
2023-02-19T11:22:37.587Z,95.59
2023-02-19T11:25:14.779Z,95.39
2023-02-19T11:28:00.714Z,95.03
2023-02-19T11:30:34.457Z,94.90
2023-02-19T11:33:26.381Z,94.79
2023-02-19T11:36:19.166Z,94.84
2023-02-19T11:38:47.221Z,95.02
2023-02-19T11:41:31.158Z,95.34
2023-02-19T11:44:20.729Z,95.65
2023-02-19T11:47:48.657Z,95.68
2023-02-19T11:50:35.941Z,95.92
2023-02-19T11:53:15.817Z,95.93
2023-02-19T11:55:49.421Z,95.64
2023-02-19T11:58:56.894Z,95.54
2023-02-19T12:01:59.651Z,95.84
2023-02-19T12:04:37.964Z,95.67
2023-02-19T12:07:40.247Z,96.30
2023-02-19T12:10:17.209Z,96.60
2023-02-19T12:12:56.857Z,97.61
2023-02-19T12:15:47.426Z,98.10
2023-02-19T12:18:24.530Z,99.29
2023-02-19T12:21:01.592Z,99.81
2023-02-19T12:23:44.316Z,99.58
2023-02-19T12:26:48.694Z,99.59
2023-02-19T12:29:22.676Z,99.52
2023-02-19T12:32:14.801Z,99.23
2023-02-19T12:35:05.613Z,99.56
2023-02-19T12:37:47.641Z,99.18
2023-02-19T12:40:27.566Z,99.26
2023-02-19T12:43:07.341Z,99.44
2023-02-19T12:45:44.590Z,99.10
2023-02-19T12:48:37.311Z,98.98
2023-02-19T12:51:11.688Z,99.16
2023-02-19T12:53:51.091Z,99.18
2023-02-19T12:56:30.673Z,98.96
2023-02-19T12:59:03.768Z,98.88
2023-02-19T13:01:50.759Z,98.22
2023-02-19T13:04:43.014Z,97.97
2023-02-19T13:07:34.496Z,98.11
2023-02-19T13:10:11.296Z,98.09
2023-02-19T13:12:44.012Z,98.32
2023-02-19T13:15:36.878Z,98.22
2023-02-19T13:18:13.715Z,97.62
2023-02-19T13:20:47.891Z,96.75
2023-02-19T13:23:51.558Z,96.20
2023-02-19T13:26:57.481Z,95.39
2023-02-19T13:30:02.036Z,95.18
2023-02-19T13:32:52.646Z,94.64
2023-02-19T13:35:55.380Z,94.42
2023-02-19T13:38:29.751Z,94.29
2023-02-19T13:41:00.260Z,94.01
2023-02-19T13:43:39.089Z,94.44
2023-02-19T13:46:17.141Z,94.70
2023-02-19T13:49:10.471Z,95.28
2023-02-19T13:51:45.712Z,95.45
2023-02-19T13:54:21.733Z,96.06
2023-02-19T13:56:50.785Z,96.33
2023-02-19T13:59:38.409Z,96.44
2023-02-19T14:02:28.295Z,96.54
2023-02-19T14:05:10.627Z,93.61
2023-02-19T14:07:50.387Z,91.38
2023-02-19T14:10:52.914Z,90.82
2023-02-19T14:13:52.095Z,90.75
2023-02-19T14:16:38.201Z,91.08
2023-02-19T14:19:43.917Z,91.10
2023-02-19T14:22:45.988Z,91.15
2023-02-19T14:25:41.708Z,91.36
2023-02-19T14:28:21.624Z,91.47
2023-02-19T14:30:51.342Z,91.35
2023-02-19T14:33:25.089Z,91.48
2023-02-19T14:35:58.674Z,91.46
2023-02-19T14:38:45.914Z,91.88
2023-02-19T14:41:15.697Z,92.07
2023-02-19T14:43:46.937Z,92.36
2023-02-19T14:46:46.508Z,92.65
2023-02-19T14:49:25.642Z,92.66
2023-02-19T14:52:00.102Z,92.71
2023-02-19T14:54:35.964Z,92.76
2023-02-19T14:57:07.045Z,92.75
2023-02-19T14:59:34.912Z,92.63
2023-02-19T15:02:14.548Z,92.74
2023-02-19T15:04:42.492Z,93.32
2023-02-19T15:07:15.320Z,93.80
2023-02-19T15:09:57.585Z,93.97
2023-02-19T15:12:28.973Z,94.38
2023-02-19T15:15:02.413Z,94.68
2023-02-19T15:17:34.074Z,95.20
2023-02-19T15:20:09.495Z,95.69
2023-02-19T15:22:41.474Z,95.60
2023-02-19T15:25:19.231Z,95.54
2023-02-19T15:27:47.506Z,95.03
2023-02-19T15:30:22.284Z,95.44
2023-02-19T15:32:59.039Z,95.99
2023-02-19T15:35:29.202Z,94.85
2023-02-19T15:37:57.406Z,93.17
2023-02-19T15:40:30.793Z,90.49
2023-02-19T15:43:00.603Z,88.61
2023-02-19T15:45:31.454Z,88.43
2023-02-19T15:48:19.890Z,89.02
2023-02-19T15:50:52.392Z,89.37
2023-02-19T15:53:28.354Z,89.87
2023-02-19T15:56:29.649Z,89.49
2023-02-19T15:59:17.277Z,89.23
2023-02-19T16:01:45.772Z,89.77
2023-02-19T16:04:17.444Z,90.57
2023-02-19T16:06:59.876Z,91.48
2023-02-19T16:09:31.308Z,92.87
2023-02-19T16:12:05.010Z,93.52
2023-02-19T16:14:37.683Z,94.40
2023-02-19T16:17:14.180Z,94.89
2023-02-19T16:19:55.595Z,95.31
2023-02-19T16:22:35.066Z,95.62
2023-02-19T16:25:06.688Z,96.33
2023-02-19T16:27:41.387Z,96.42
2023-02-19T16:30:26.832Z,96.60
2023-02-19T16:33:33.031Z,95.44
2023-02-19T16:36:19.962Z,93.82
2023-02-19T16:39:07.011Z,92.82
2023-02-19T16:42:02.036Z,90.57
2023-02-19T16:44:33.209Z,89.78
2023-02-19T16:47:07.871Z,89.78
2023-02-19T16:49:37.265Z,89.27
2023-02-19T16:52:05.243Z,88.06
2023-02-19T16:54:33.133Z,86.87
2023-02-19T16:57:01.123Z,86.33
2023-02-19T16:59:29.213Z,85.87
2023-02-19T17:01:57.489Z,85.41
2023-02-19T17:04:25.475Z,85.38
2023-02-19T17:06:53.538Z,85.64
2023-02-19T17:09:21.532Z,85.30
2023-02-19T17:11:49.700Z,85.07
2023-02-19T17:14:18.865Z,85.24
2023-02-19T17:16:48.182Z,85.09
2023-02-19T17:19:18.899Z,85.33
2023-02-19T17:21:47.096Z,85.38
2023-02-19T17:24:15.448Z,85.12
2023-02-19T17:26:43.472Z,85.32
2023-02-19T17:29:15.598Z,85.27
2023-02-19T17:31:43.918Z,85.66
2023-02-19T17:34:14.583Z,85.51
2023-02-19T17:36:44.981Z,85.81
2023-02-19T17:39:15.538Z,86.23
2023-02-19T17:41:48.057Z,86.55
2023-02-19T17:44:23.299Z,86.57
2023-02-19T17:46:53.495Z,86.65
2023-02-19T17:49:21.479Z,86.96
2023-02-19T17:51:49.408Z,87.44
2023-02-19T17:54:17.266Z,87.63
2023-02-19T17:56:47.151Z,88.24
2023-02-19T17:59:17.436Z,88.17
2023-02-19T18:01:48.115Z,88.63
2023-02-19T18:04:18.197Z,88.81
2023-02-19T18:06:48.214Z,89.01
2023-02-19T18:09:20.284Z,89.09
2023-02-19T18:11:50.699Z,89.12
2023-02-19T18:14:19.497Z,88.86
2023-02-19T18:16:50.522Z,88.40
2023-02-19T18:22:53.084Z,88.57
2023-02-19T18:25:30.382Z,88.55
2023-02-19T18:27:59.372Z,88.60
2023-02-19T18:30:30.193Z,88.67
2023-02-19T18:32:58.757Z,88.95
2023-02-19T18:35:26.749Z,89.12
2023-02-19T18:37:55.973Z,89.15
2023-02-19T18:40:27.332Z,88.95
2023-02-19T18:42:55.544Z,88.70
2023-02-19T18:45:23.548Z,88.07
2023-02-19T18:47:56.301Z,87.85
2023-02-19T18:50:24.321Z,87.87
2023-02-19T18:52:52.795Z,87.54
2023-02-19T18:55:20.808Z,87.88
2023-02-19T18:57:49.311Z,87.75
2023-02-19T19:00:26.389Z,87.98
2023-02-19T19:03:00.149Z,88.31
2023-02-19T19:05:29.828Z,88.34
2023-02-19T19:08:02.043Z,88.03
2023-02-19T19:10:30.789Z,87.94
2023-02-19T19:12:59.136Z,87.77
2023-02-19T19:15:27.304Z,87.51
2023-02-19T19:18:04.665Z,87.14
2023-02-19T19:20:32.826Z,87.10
2023-02-19T19:23:04.987Z,87.14
2023-02-19T19:25:39.413Z,87.13
2023-02-19T19:28:07.411Z,87.43
2023-02-19T19:30:35.442Z,87.56
2023-02-19T19:33:03.628Z,87.48
2023-02-19T19:35:31.538Z,87.38
2023-02-19T19:37:59.529Z,87.58
2023-02-19T19:40:42.272Z,87.50
2023-02-19T19:43:10.314Z,87.42
2023-02-19T19:45:40.173Z,87.50
2023-02-19T19:48:08.200Z,87.64
2023-02-19T19:50:39.891Z,87.80
2023-02-19T19:53:07.980Z,87.96
2023-02-19T19:55:38.664Z,88.03
2023-02-19T19:58:17.002Z,88.02
2023-02-19T20:00:44.980Z,88.31
2023-02-19T20:03:16.489Z,88.73
2023-02-19T20:05:50.332Z,89.11
2023-02-19T20:08:18.577Z,89.49
2023-02-19T20:10:46.576Z,89.82
2023-02-19T20:13:20.969Z,88.79
2023-02-19T20:15:49.228Z,87.65
2023-02-19T20:18:17.254Z,85.36
2023-02-19T20:20:45.316Z,84.01
2023-02-19T20:23:13.450Z,83.02
2023-02-19T20:25:41.375Z,82.35
2023-02-19T20:28:11.265Z,81.78
2023-02-19T20:30:39.489Z,81.13
2023-02-19T20:33:07.484Z,81.22
2023-02-19T20:35:35.405Z,81.59
2023-02-19T20:38:03.455Z,81.65
2023-02-19T20:40:35.501Z,82.09
2023-02-19T20:43:05.573Z,82.18
2023-02-19T20:45:34.165Z,81.17
2023-02-19T20:48:02.182Z,79.51
2023-02-19T20:50:30.404Z,77.77
2023-02-19T20:52:58.613Z,77.88
2023-02-19T20:55:26.562Z,78.73
2023-02-19T20:57:56.958Z,79.38
2023-02-19T21:00:24.999Z,80.95
2023-02-19T21:02:53.321Z,82.51
2023-02-19T21:05:21.543Z,83.91
2023-02-19T21:07:49.811Z,84.82
2023-02-19T21:10:18.246Z,86.47
2023-02-19T21:12:46.402Z,87.85
2023-02-19T21:15:15.380Z,89.27
2023-02-19T21:17:46.569Z,89.73
2023-02-19T21:20:18.004Z,91.23
2023-02-19T21:22:46.082Z,91.72
2023-02-19T21:25:13.977Z,91.78
2023-02-19T21:27:41.846Z,92.37
2023-02-19T21:30:10.082Z,94.18
2023-02-19T21:32:38.069Z,92.39
2023-02-19T21:35:06.722Z,92.58
2023-02-19T21:37:34.670Z,92.22
2023-02-19T21:40:02.557Z,91.99
2023-02-19T21:42:30.570Z,91.34
2023-02-19T21:44:58.486Z,91.67
2023-02-19T21:47:27.795Z,91.45
2023-02-19T21:49:55.727Z,91.58
2023-02-19T21:52:23.910Z,91.99
2023-02-19T21:54:51.713Z,91.93
2023-02-19T21:57:19.590Z,91.36
2023-02-19T21:59:47.654Z,90.56
2023-02-19T22:02:19.910Z,90.03
2023-02-19T22:04:54.991Z,90.59
2023-02-19T22:07:23.081Z,90.43
2023-02-19T22:09:52.057Z,89.55
2023-02-19T22:12:20.658Z,89.43
2023-02-19T22:14:48.790Z,89.16
2023-02-19T22:17:16.738Z,89.52
2023-02-19T22:19:44.749Z,88.89
2023-02-19T22:22:13.118Z,88.55
2023-02-19T22:24:44.075Z,88.67
2023-02-19T22:27:12.129Z,88.91
2023-02-19T22:29:40.206Z,90.27
2023-02-19T22:32:08.642Z,89.67
2023-02-19T22:34:41.062Z,88.63
2023-02-19T22:37:10.501Z,89.04
2023-02-19T22:39:38.517Z,88.86
2023-02-19T22:42:06.485Z,87.84
2023-02-19T22:44:35.497Z,87.88
2023-02-19T22:47:03.950Z,87.65
2023-02-19T22:49:31.976Z,88.41
2023-02-19T22:52:05.042Z,87.88
2023-02-19T22:54:32.924Z,87.67
2023-02-19T22:57:00.850Z,86.82
2023-02-19T22:59:29.382Z,85.79
2023-02-19T23:01:58.023Z,84.82
2023-02-19T23:04:26.436Z,83.90
2023-02-19T23:06:55.448Z,82.58
2023-02-19T23:09:26.706Z,81.16
2023-02-19T23:12:01.184Z,81.28
2023-02-19T23:14:29.391Z,79.71
2023-02-19T23:16:58.464Z,78.23
2023-02-19T23:19:27.451Z,75.90
2023-02-19T23:21:55.745Z,76.58
2023-02-19T23:24:24.297Z,76.25
2023-02-19T23:26:53.172Z,75.14
2023-02-19T23:29:25.334Z,74.01
2023-02-19T23:31:54.925Z,72.79
2023-02-19T23:34:24.310Z,73.29
2023-02-19T23:36:52.567Z,73.10
2023-02-19T23:39:21.989Z,72.74
2023-02-19T23:41:53.065Z,72.52
2023-02-19T23:44:21.513Z,71.89
2023-02-19T23:46:50.516Z,71.34
2023-02-19T23:49:19.460Z,71.11
2023-02-19T23:51:47.489Z,70.26
2023-02-19T23:54:15.794Z,69.18
2023-02-19T23:56:44.023Z,69.27
2023-02-19T23:59:12.633Z,68.58
